Time;durP1;ratioP1;P1;durP2;ratioP2;P2;SDS_P1;SDS_P2;PMS_P1;PMS_P2;Temp;Humidity;BMP_temperature;BMP_pressure;BME280_temperature;BME280_humidity;BME280_pressure;Samples;Min_cycle;Max_cycle;Signal;HPM_P1;HPM_P2
2023/02/22 00:01:18;;;;;;;5.13;2.80;;;;;;;;;;5068413;28;20020;-54
2023/02/22 00:03:47;;;;;;;6.13;2.50;;;;;;;;;;5066257;28;20150;-57
2023/02/22 00:06:16;;;;;;;5.50;2.53;;;;;;;;;;5068305;28;20036;-57
2023/02/22 00:08:41;;;;;;;4.22;2.83;;;;;;;;;;5067053;28;20036;-57
2023/02/22 00:11:07;;;;;;;7.50;2.95;;;;;;;;;;5068532;28;20043;-57
2023/02/22 00:13:33;;;;;;;4.22;2.60;;;;;;;;;;5068689;28;20169;-57
2023/02/22 00:16:00;;;;;;;5.28;2.90;;;;;;;;;;5069672;28;20099;-56
2023/02/22 00:18:27;;;;;;;5.60;3.60;;;;;;;;;;5068363;28;20464;-57
2023/02/22 00:20:53;;;;;;;5.20;3.55;;;;;;;;;;5071177;28;20031;-57
2023/02/22 00:23:21;;;;;;;5.07;3.60;;;;;;;;;;5071971;28;20025;-57
2023/02/22 00:25:49;;;;;;;5.88;3.50;;;;;;;;;;5067762;28;20028;-57
2023/02/22 00:28:15;;;;;;;5.93;3.80;;;;;;;;;;5064552;28;20033;-56
2023/02/22 00:30:42;;;;;;;8.05;3.80;;;;;;;;;;5068690;28;20059;-57
2023/02/22 00:33:08;;;;;;;5.43;3.50;;;;;;;;;;5067169;28;20071;-58
2023/02/22 00:35:34;;;;;;;6.97;3.58;;;;;;;;;;5074398;28;20024;-57
2023/02/22 00:38:00;;;;;;;5.25;3.30;;;;;;;;;;5073428;28;20370;-56
2023/02/22 00:40:31;;;;;;;5.53;3.47;;;;;;;;;;5066018;28;20028;-57
2023/02/22 00:42:59;;;;;;;5.00;2.67;;;;;;;;;;5070665;28;20493;-57
2023/02/22 00:45:27;;;;;;;4.30;3.28;;;;;;;;;;5072146;28;20070;-56
2023/02/22 00:47:53;;;;;;;5.55;3.17;;;;;;;;;;5070097;28;20048;-57
2023/02/22 00:50:20;;;;;;;5.70;3.40;;;;;;;;;;5071456;28;20024;-57
2023/02/22 00:52:45;;;;;;;4.72;2.97;;;;;;;;;;5071648;28;20028;-57
2023/02/22 00:55:19;;;;;;;4.28;2.72;;;;;;;;;;5071048;28;20100;-56
2023/02/22 00:57:45;;;;;;;5.38;2.90;;;;;;;;;;5070723;28;20110;-56
2023/02/22 01:00:16;;;;;;;4.28;3.15;;;;;;;;;;5071466;28;20474;-58
2023/02/22 01:02:42;;;;;;;4.90;3.17;;;;;;;;;;5075949;28;20035;-58
2023/02/22 01:05:11;;;;;;;6.40;3.20;;;;;;;;;;5070946;28;20020;-57
2023/02/22 01:07:38;;;;;;;5.32;3.28;;;;;;;;;;5069752;28;20029;-57
2023/02/22 01:10:04;;;;;;;5.13;3.40;;;;;;;;;;5071263;28;20024;-57
2023/02/22 01:12:29;;;;;;;5.05;3.28;;;;;;;;;;5068730;28;20052;-56
2023/02/22 01:14:55;;;;;;;4.85;3.38;;;;;;;;;;5071058;28;20097;-56
2023/02/22 01:17:22;;;;;;;5.25;2.92;;;;;;;;;;5070091;28;20511;-58
2023/02/22 01:19:48;;;;;;;8.30;3.03;;;;;;;;;;5071221;28;20032;-57
2023/02/22 01:22:14;;;;;;;4.28;3.08;;;;;;;;;;5067242;28;20051;-57
2023/02/22 01:24:39;;;;;;;4.60;2.85;;;;;;;;;;5069523;28;20020;-58
2023/02/22 01:27:04;;;;;;;4.32;3.00;;;;;;;;;;5070249;28;20052;-57
2023/02/22 01:29:30;;;;;;;8.65;4.65;;;;;;;;;;5069026;28;20069;-58
2023/02/22 01:31:55;;;;;;;8.77;4.78;;;;;;;;;;5070608;28;20397;-57
2023/02/22 01:34:22;;;;;;;6.65;4.30;;;;;;;;;;5068399;28;20031;-57
2023/02/22 01:36:47;;;;;;;5.05;3.50;;;;;;;;;;5070113;28;20115;-57
2023/02/22 01:39:13;;;;;;;5.15;3.40;;;;;;;;;;5070802;28;20634;-57
2023/02/22 01:41:38;;;;;;;5.60;3.50;;;;;;;;;;5070921;28;20059;-57
2023/02/22 01:44:31;;;;;;;6.50;3.20;;;;;;;;;;5070436;28;20127;-57
2023/02/22 01:46:58;;;;;;;4.45;2.85;;;;;;;;;;5065998;28;20099;-57
2023/02/22 01:49:28;;;;;;;4.45;2.90;;;;;;;;;;5069683;28;20111;-57
2023/02/22 01:51:58;;;;;;;6.05;3.33;;;;;;;;;;5062639;28;20153;-57
2023/02/22 01:54:29;;;;;;;;;;;;;;;;;;5067446;28;20082;-57
2023/02/22 01:56:54;;;;;;;5.40;3.10;;;;;;;;;;5069916;28;19912;-57
2023/02/22 01:59:20;;;;;;;5.60;3.75;;;;;;;;;;5069562;28;20031;-57
2023/02/22 02:01:46;;;;;;;4.55;3.33;;;;;;;;;;5069607;28;20025;-57
2023/02/22 02:04:24;;;;;;;7.78;3.58;;;;;;;;;;5069027;28;20504;-57
2023/02/22 02:06:52;;;;;;;4.05;2.70;;;;;;;;;;5068801;28;20024;-57
2023/02/22 02:09:28;;;;;;;5.10;3.00;;;;;;;;;;5070157;28;20444;-57
2023/02/22 02:11:54;;;;;;;5.40;3.17;;;;;;;;;;5068460;28;20020;-58
2023/02/22 02:14:19;;;;;;;4.53;3.10;;;;;;;;;;5074891;28;20085;-57
2023/02/22 02:16:47;;;;;;;4.38;2.90;;;;;;;;;;5069775;28;20444;-56
2023/02/22 02:19:43;;;;;;;5.20;3.20;;;;;;;;;;5070215;28;20028;-57
2023/02/22 02:22:29;;;;;;;4.03;3.00;;;;;;;;;;5066692;28;20031;-56
2023/02/22 02:25:16;;;;;;;5.72;3.58;;;;;;;;;;5061338;28;20044;-56
2023/02/22 02:28:00;;;;;;;4.63;2.95;;;;;;;;;;5068850;28;20017;-56
2023/02/22 02:30:57;;;;;;;5.18;2.97;;;;;;;;;;5063531;28;20025;-58
2023/02/22 02:33:32;;;;;;;3.13;2.20;;;;;;;;;;5034934;28;20139;-57
2023/02/22 02:36:15;;;;;;;4.30;2.95;;;;;;;;;;5069743;28;20733;-56
2023/02/22 02:38:49;;;;;;;5.57;2.70;;;;;;;;;;5068957;28;20606;-56
2023/02/22 02:41:23;;;;;;;3.08;2.35;;;;;;;;;;5068171;28;20104;-57
2023/02/22 02:44:01;;;;;;;7.00;2.95;;;;;;;;;;5065618;28;20032;-58
2023/02/22 02:46:34;;;;;;;4.10;2.40;;;;;;;;;;5068106;28;20020;-58
2023/02/22 02:49:10;;;;;;;3.42;2.50;;;;;;;;;;5067622;28;20024;-57
2023/02/22 02:51:39;;;;;;;4.05;2.47;;;;;;;;;;5068379;28;20016;-57
2023/02/22 02:54:06;;;;;;;8.98;2.50;;;;;;;;;;5071875;28;20103;-57
2023/02/22 02:56:32;;;;;;;3.58;2.30;;;;;;;;;;5068041;28;20034;-56
2023/02/22 02:58:57;;;;;;;4.18;2.30;;;;;;;;;;5071357;28;20039;-56
2023/02/22 03:01:32;;;;;;;3.95;2.28;;;;;;;;;;5068708;28;20013;-56
2023/02/22 03:04:19;;;;;;;4.60;2.45;;;;;;;;;;5063822;28;20031;-56
2023/02/22 03:07:23;;;;;;;2.60;2.00;;;;;;;;;;5066287;28;20039;-57
2023/02/22 03:10:12;;;;;;;3.25;2.20;;;;;;;;;;5062456;28;20487;-56
2023/02/22 03:12:48;;;;;;;3.13;2.40;;;;;;;;;;5067772;28;20040;-58
2023/02/22 03:15:32;;;;;;;2.95;2.10;;;;;;;;;;5069166;28;20024;-57
2023/02/22 03:18:16;;;;;;;3.15;2.40;;;;;;;;;;5068184;28;20028;-57
2023/02/22 03:21:09;;;;;;;3.20;2.53;;;;;;;;;;5068351;28;20052;-56
2023/02/22 03:23:50;;;;;;;4.10;2.35;;;;;;;;;;5064000;28;20032;-56
2023/02/22 03:26:22;;;;;;;3.33;2.15;;;;;;;;;;5062393;28;20059;-56
2023/02/22 03:28:51;;;;;;;2.92;2.40;;;;;;;;;;5063692;28;20028;-57
2023/02/22 03:31:26;;;;;;;3.40;2.33;;;;;;;;;;5066541;28;20440;-56
2023/02/22 03:33:58;;;;;;;2.83;2.17;;;;;;;;;;5068938;28;20020;-56
2023/02/22 03:36:27;;;;;;;4.97;2.30;;;;;;;;;;5068383;28;20482;-56
2023/02/22 03:38:56;;;;;;;4.75;2.50;;;;;;;;;;5068529;28;20024;-56
2023/02/22 03:41:27;;;;;;;4.90;2.75;;;;;;;;;;5069055;28;20033;-57
2023/02/22 03:43:58;;;;;;;7.25;2.70;;;;;;;;;;5068571;28;20024;-57
2023/02/22 03:46:28;;;;;;;3.45;2.42;;;;;;;;;;5066286;28;20040;-57
2023/02/22 03:49:10;;;;;;;3.72;2.53;;;;;;;;;;5061787;28;20020;-57
2023/02/22 03:51:38;;;;;;;3.40;2.30;;;;;;;;;;5072075;28;20024;-57
2023/02/22 03:54:05;;;;;;;5.07;2.92;;;;;;;;;;5068776;28;20027;-57
2023/02/22 03:56:36;;;;;;;5.57;2.35;;;;;;;;;;5067634;28;20066;-57
2023/02/22 03:59:07;;;;;;;3.10;2.28;;;;;;;;;;5067828;28;20081;-57
2023/02/22 04:01:33;;;;;;;5.10;2.28;;;;;;;;;;5067177;28;20512;-57
2023/02/22 04:03:59;;;;;;;7.85;2.38;;;;;;;;;;5067760;28;20021;-58
2023/02/22 04:06:25;;;;;;;3.53;2.50;;;;;;;;;;5068735;28;20425;-57
2023/02/22 04:08:50;;;;;;;3.13;2.38;;;;;;;;;;5068184;28;20032;-56
2023/02/22 04:11:16;;;;;;;3.17;2.22;;;;;;;;;;5066668;28;20032;-57
2023/02/22 04:13:41;;;;;;;3.25;2.08;;;;;;;;;;5066836;28;20108;-57
2023/02/22 04:16:06;;;;;;;2.50;2.13;;;;;;;;;;5067562;28;20532;-57
2023/02/22 04:18:32;;;;;;;4.15;2.22;;;;;;;;;;5067665;28;20090;-57
2023/02/22 04:20:57;;;;;;;3.72;2.30;;;;;;;;;;5068237;28;20097;-57
2023/02/22 04:23:22;;;;;;;6.30;2.63;;;;;;;;;;5066933;28;20028;-57
2023/02/22 04:25:48;;;;;;;4.45;2.42;;;;;;;;;;5069085;28;20055;-57
2023/02/22 04:28:13;;;;;;;5.47;2.40;;;;;;;;;;5067666;28;20481;-56
2023/02/22 04:30:39;;;;;;;3.35;2.28;;;;;;;;;;5066977;28;20439;-56
2023/02/22 04:33:04;;;;;;;5.43;2.20;;;;;;;;;;5062967;28;20028;-57
2023/02/22 04:35:29;;;;;;;3.88;1.95;;;;;;;;;;5063299;28;20021;-56
2023/02/22 04:37:55;;;;;;;2.60;1.90;;;;;;;;;;5067164;28;20024;-56
2023/02/22 04:40:20;;;;;;;3.15;2.10;;;;;;;;;;5066092;28;20032;-56
2023/02/22 04:42:46;;;;;;;3.85;1.80;;;;;;;;;;5070487;28;20421;-56
2023/02/22 04:45:12;;;;;;;3.85;2.45;;;;;;;;;;5067566;28;20036;-57
2023/02/22 04:47:37;;;;;;;3.92;2.35;;;;;;;;;;5058790;28;20037;-56
2023/02/22 04:50:08;;;;;;;4.70;2.35;;;;;;;;;;5062400;28;20035;-56
2023/02/22 04:52:33;;;;;;;3.95;2.40;;;;;;;;;;5068776;28;20028;-56
2023/02/22 04:54:59;;;;;;;4.95;2.45;;;;;;;;;;5067768;28;20020;-57
2023/02/22 04:57:24;;;;;;;3.42;2.50;;;;;;;;;;5067190;28;20086;-56
2023/02/22 04:59:50;;;;;;;4.57;2.92;;;;;;;;;;5067854;28;20020;-57
2023/02/22 05:02:16;;;;;;;9.23;3.15;;;;;;;;;;5067617;28;20393;-58
2023/02/22 05:04:42;;;;;;;5.75;2.95;;;;;;;;;;5069432;28;20413;-56
2023/02/22 05:07:07;;;;;;;3.30;2.38;;;;;;;;;;5069891;28;20035;-57
2023/02/22 05:09:32;;;;;;;6.22;3.10;;;;;;;;;;5068838;28;20017;-57
2023/02/22 05:11:58;;;;;;;12.32;4.30;;;;;;;;;;5074678;28;20036;-56
2023/02/22 05:14:25;;;;;;;7.43;3.90;;;;;;;;;;5070900;28;20028;-56
2023/02/22 05:16:51;;;;;;;5.97;2.75;;;;;;;;;;5070972;28;20040;-57
2023/02/22 05:19:16;;;;;;;4.05;2.35;;;;;;;;;;5067953;28;20030;-57
2023/02/22 05:21:42;;;;;;;4.57;2.65;;;;;;;;;;5070046;28;20116;-58
2023/02/22 05:24:07;;;;;;;5.00;3.13;;;;;;;;;;5068298;28;20074;-57
2023/02/22 05:26:32;;;;;;;4.50;2.80;;;;;;;;;;5065141;28;20021;-57
2023/02/22 05:28:58;;;;;;;4.38;2.88;;;;;;;;;;5064166;28;20036;-55
2023/02/22 05:31:23;;;;;;;4.07;2.20;;;;;;;;;;5069809;28;20111;-56
2023/02/22 05:33:49;;;;;;;11.68;4.20;;;;;;;;;;5073620;28;20059;-58
2023/02/22 05:36:15;;;;;;;5.07;3.20;;;;;;;;;;5070368;28;20110;-56
2023/02/22 05:38:43;;;;;;;4.15;2.63;;;;;;;;;;5066800;28;20031;-56
2023/02/22 05:41:10;;;;;;;5.68;3.45;;;;;;;;;;5073186;28;20032;-56
2023/02/22 05:43:36;;;;;;;7.63;3.20;;;;;;;;;;5069861;28;20107;-56
2023/02/22 05:46:02;;;;;;;5.38;3.25;;;;;;;;;;5069188;28;20029;-56
2023/02/22 05:48:27;;;;;;;5.88;3.00;;;;;;;;;;5069165;28;20090;-56
2023/02/22 05:50:53;;;;;;;5.45;3.05;;;;;;;;;;5071330;28;20036;-54
2023/02/22 05:53:18;;;;;;;6.13;3.13;;;;;;;;;;5071248;28;20056;-55
2023/02/22 05:55:44;;;;;;;7.00;2.92;;;;;;;;;;5077247;28;20025;-55
2023/02/22 05:58:09;;;;;;;8.05;3.92;;;;;;;;;;5074946;28;20635;-56
2023/02/22 06:00:34;;;;;;;5.90;3.50;;;;;;;;;;5070706;28;20074;-55
2023/02/22 06:03:05;;;;;;;7.45;3.78;;;;;;;;;;5071225;28;20104;-55
2023/02/22 06:05:31;;;;;;;8.48;4.05;;;;;;;;;;5070157;28;20020;-55
2023/02/22 06:07:57;;;;;;;7.70;3.80;;;;;;;;;;5070316;28;20024;-55
2023/02/22 06:10:24;;;;;;;6.65;3.75;;;;;;;;;;5071131;28;20439;-55
2023/02/22 06:12:50;;;;;;;6.50;3.47;;;;;;;;;;5071461;28;20399;-55
2023/02/22 06:15:16;;;;;;;7.68;3.70;;;;;;;;;;5070090;28;20473;-55
2023/02/22 06:17:42;;;;;;;9.35;4.35;;;;;;;;;;5065399;28;20445;-55
2023/02/22 06:20:12;;;;;;;5.53;3.55;;;;;;;;;;5070489;28;20047;-57
2023/02/22 06:22:40;;;;;;;8.35;4.47;;;;;;;;;;5070751;28;20024;-56
2023/02/22 06:25:06;;;;;;;8.30;4.00;;;;;;;;;;5070162;28;20024;-57
2023/02/22 06:27:33;;;;;;;7.88;4.03;;;;;;;;;;5068638;28;20493;-57
2023/02/22 06:29:59;;;;;;;6.10;3.60;;;;;;;;;;5072451;28;20032;-57
2023/02/22 06:32:25;;;;;;;6.53;3.80;;;;;;;;;;5070491;28;20024;-56
2023/02/22 06:34:51;;;;;;;7.55;3.80;;;;;;;;;;5070331;28;20604;-56
2023/02/22 06:37:16;;;;;;;7.20;3.50;;;;;;;;;;5069263;28;20478;-56
2023/02/22 06:39:41;;;;;;;7.25;3.70;;;;;;;;;;5069730;28;20016;-55
2023/02/22 06:42:07;;;;;;;5.55;3.35;;;;;;;;;;5070384;28;20028;-56
2023/02/22 06:44:32;;;;;;;7.53;3.88;;;;;;;;;;5069160;28;20477;-56
2023/02/22 06:46:58;;;;;;;6.88;4.03;;;;;;;;;;5069360;28;20074;-56
2023/02/22 06:49:26;;;;;;;8.40;5.15;;;;;;;;;;5069595;28;20036;-56
2023/02/22 06:51:52;;;;;;;9.40;5.30;;;;;;;;;;5070056;28;20016;-56
2023/02/22 06:54:17;;;;;;;12.27;5.85;;;;;;;;;;5070004;28;20478;-56
2023/02/22 06:56:42;;;;;;;10.60;5.68;;;;;;;;;;5074042;28;20039;-57
2023/02/22 06:59:08;;;;;;;10.73;6.18;;;;;;;;;;5069780;28;20404;-57
2023/02/22 07:01:33;;;;;;;11.30;6.28;;;;;;;;;;5069608;28;20613;-56
2023/02/22 07:03:59;;;;;;;9.20;5.70;;;;;;;;;;5069647;28;20104;-57
2023/02/22 07:06:24;;;;;;;9.63;5.50;;;;;;;;;;5068532;28;20047;-56
2023/02/22 07:08:49;;;;;;;8.63;5.63;;;;;;;;;;5069128;28;20031;-56
2023/02/22 07:11:16;;;;;;;7.35;4.95;;;;;;;;;;5069843;28;20073;-56
2023/02/22 07:13:41;;;;;;;10.23;5.20;;;;;;;;;;5069912;28;20111;-57
2023/02/22 07:16:06;;;;;;;9.30;5.20;;;;;;;;;;5070213;28;20468;-57
2023/02/22 07:18:32;;;;;;;9.27;5.93;;;;;;;;;;5068059;28;20030;-57
2023/02/22 07:20:57;;;;;;;9.05;5.38;;;;;;;;;;5069304;28;20032;-57
2023/02/22 07:23:23;;;;;;;14.07;7.65;;;;;;;;;;5069647;28;20470;-57
2023/02/22 07:25:49;;;;;;;12.75;7.00;;;;;;;;;;5069713;28;20031;-57
2023/02/22 07:28:14;;;;;;;11.90;7.53;;;;;;;;;;5067552;28;20406;-56
2023/02/22 07:30:39;;;;;;;15.60;8.70;;;;;;;;;;5069073;28;20044;-56
2023/02/22 07:33:10;;;;;;;17.27;8.75;;;;;;;;;;5069589;28;20024;-56
2023/02/22 07:35:45;;;;;;;13.25;8.43;;;;;;;;;;5072362;28;20478;-56
2023/02/22 07:38:12;;;;;;;15.25;9.10;;;;;;;;;;5068141;28;20032;-57
2023/02/22 07:40:38;;;;;;;14.55;8.50;;;;;;;;;;5069029;28;20028;-57
2023/02/22 07:43:12;;;;;;;14.52;8.27;;;;;;;;;;5069561;28;20017;-56
2023/02/22 07:45:38;;;;;;;15.75;8.43;;;;;;;;;;5069287;28;20033;-57
2023/02/22 07:48:05;;;;;;;13.52;8.50;;;;;;;;;;5068277;28;20020;-57
2023/02/22 07:50:32;;;;;;;19.17;9.35;;;;;;;;;;5069105;28;20082;-57
2023/02/22 07:53:01;;;;;;;16.08;9.52;;;;;;;;;;5069597;28;20063;-57
2023/02/22 07:55:28;;;;;;;15.80;9.68;;;;;;;;;;5069207;28;20028;-57
2023/02/22 07:57:57;;;;;;;22.55;11.13;;;;;;;;;;5071698;28;20115;-57
2023/02/22 08:00:24;;;;;;;21.20;12.38;;;;;;;;;;5070553;28;20031;-56
2023/02/22 08:02:50;;;;;;;26.65;13.63;;;;;;;;;;5069481;28;20025;-57
2023/02/22 08:05:15;;;;;;;26.83;14.10;;;;;;;;;;5069583;28;20036;-57
2023/02/22 08:07:42;;;;;;;26.23;14.63;;;;;;;;;;5070047;28;20013;-57
2023/02/22 08:10:08;;;;;;;26.73;13.45;;;;;;;;;;5074744;28;20086;-57
2023/02/22 08:12:35;;;;;;;24.52;13.55;;;;;;;;;;5074756;28;20029;-57
2023/02/22 08:15:01;;;;;;;23.00;13.07;;;;;;;;;;5069206;28;20084;-57
2023/02/22 08:17:27;;;;;;;23.83;13.25;;;;;;;;;;5067919;28;20418;-56
2023/02/22 08:19:52;;;;;;;28.83;13.90;;;;;;;;;;5069045;28;20028;-57
2023/02/22 08:22:18;;;;;;;25.67;13.80;;;;;;;;;;5069179;28;20033;-57
2023/02/22 08:24:43;;;;;;;30.65;14.30;;;;;;;;;;5069359;28;20440;-57
2023/02/22 08:27:08;;;;;;;28.35;13.00;;;;;;;;;;5067804;28;20028;-57
2023/02/22 08:29:34;;;;;;;25.75;13.40;;;;;;;;;;5068650;28;20071;-56
2023/02/22 08:31:59;;;;;;;26.98;13.10;;;;;;;;;;5069136;28;20031;-57
2023/02/22 08:34:25;;;;;;;27.55;13.15;;;;;;;;;;5068969;28;20478;-57
2023/02/22 08:36:51;;;;;;;24.10;12.43;;;;;;;;;;5071054;28;20089;-57
2023/02/22 08:39:16;;;;;;;23.27;12.85;;;;;;;;;;5071676;28;20430;-57
2023/02/22 08:41:41;;;;;;;25.75;12.45;;;;;;;;;;5071146;28;20020;-57
2023/02/22 08:44:07;;;;;;;30.15;14.60;;;;;;;;;;5072394;28;20028;-58
2023/02/22 08:46:32;;;;;;;24.85;13.93;;;;;;;;;;5071473;28;20031;-57
2023/02/22 08:48:58;;;;;;;19.67;11.85;;;;;;;;;;5072200;28;20044;-57
2023/02/22 08:51:24;;;;;;;23.20;12.60;;;;;;;;;;5071468;28;20036;-57
2023/02/22 08:53:49;;;;;;;20.77;12.27;;;;;;;;;;5072405;28;20024;-57
2023/02/22 08:56:15;;;;;;;18.65;11.32;;;;;;;;;;5072635;28;20040;-57
2023/02/22 08:58:40;;;;;;;21.67;11.27;;;;;;;;;;5070618;28;20021;-57
2023/02/22 09:01:06;;;;;;;19.63;10.88;;;;;;;;;;5072045;28;20508;-57
2023/02/22 09:03:31;;;;;;;21.35;11.82;;;;;;;;;;5072507;28;20067;-56
2023/02/22 09:05:58;;;;;;;22.70;11.00;;;;;;;;;;5072476;28;20028;-57
2023/02/22 09:08:24;;;;;;;26.50;11.60;;;;;;;;;;5071286;28;20020;-57
2023/02/22 09:10:49;;;;;;;23.15;13.20;;;;;;;;;;5072008;28;20028;-57
2023/02/22 09:13:15;;;;;;;27.67;14.35;;;;;;;;;;5072047;28;20085;-57
2023/02/22 09:15:41;;;;;;;35.83;14.43;;;;;;;;;;5072941;28;20016;-57
2023/02/22 09:18:09;;;;;;;31.15;14.40;;;;;;;;;;5071092;28;20109;-57
2023/02/22 09:20:35;;;;;;;28.55;14.13;;;;;;;;;;5072738;28;20040;-58
2023/02/22 09:23:01;;;;;;;25.25;13.57;;;;;;;;;;5072213;28;20020;-58
2023/02/22 09:25:27;;;;;;;23.33;11.55;;;;;;;;;;5071832;28;20482;-57
2023/02/22 09:27:54;;;;;;;22.33;11.48;;;;;;;;;;5071079;28;20028;-56
2023/02/22 09:30:23;;;;;;;20.67;11.73;;;;;;;;;;5070633;28;20496;-57
2023/02/22 09:32:50;;;;;;;23.25;11.70;;;;;;;;;;5071705;28;20032;-57
2023/02/22 09:35:15;;;;;;;21.13;10.20;;;;;;;;;;5071799;28;20025;-57
2023/02/22 09:37:43;;;;;;;18.88;10.15;;;;;;;;;;5070930;28;20036;-57
2023/02/22 09:40:23;;;;;;;16.98;9.93;;;;;;;;;;5070479;28;20473;-57
2023/02/22 09:42:52;;;;;;;;;;;;;;;;;;5076391;28;20028;-57
2023/02/22 09:45:35;;;;;;;22.52;10.95;;;;;;;;;;5071491;28;20018;-57
2023/02/22 09:48:04;;;;;;;21.67;11.07;;;;;;;;;;5069966;28;20032;-57
2023/02/22 09:50:41;;;;;;;18.77;10.98;;;;;;;;;;5070212;28;20025;-57
2023/02/22 09:53:28;;;;;;;17.83;10.02;;;;;;;;;;5071378;28;20036;-57
2023/02/22 09:56:00;;;;;;;17.13;10.02;;;;;;;;;;5069926;28;20028;-57
2023/02/22 09:58:35;;;;;;;23.40;12.15;;;;;;;;;;5070005;28;20031;-57
2023/02/22 10:01:25;;;;;;;18.27;10.70;;;;;;;;;;5070090;28;20470;-57
2023/02/22 10:04:18;;;;;;;16.90;9.45;;;;;;;;;;5064456;28;20041;-57
2023/02/22 10:07:14;;;;;;;16.20;9.68;;;;;;;;;;5068548;28;20028;-57
2023/02/22 10:09:42;;;;;;;19.40;8.98;;;;;;;;;;5070104;28;20074;-57
2023/02/22 10:12:22;;;;;;;19.88;10.45;;;;;;;;;;5068723;28;20025;-57
2023/02/22 10:14:56;;;;;;;21.52;10.52;;;;;;;;;;5064631;28;20436;-56
2023/02/22 10:17:46;;;;;;;17.48;9.77;;;;;;;;;;5070237;28;20561;-57
2023/02/22 10:20:27;;;;;;;17.85;9.02;;;;;;;;;;5070520;28;20040;-58
2023/02/22 10:23:14;;;;;;;15.48;9.32;;;;;;;;;;5070684;28;20034;-58
2023/02/22 10:25:43;;;;;;;18.58;10.15;;;;;;;;;;5073008;28;20545;-58
2023/02/22 10:28:12;;;;;;;;;;;;;;;;;;5067912;28;20032;-58
2023/02/22 10:30:44;;;;;;;19.45;9.55;;;;;;;;;;5068054;28;19935;-57
2023/02/22 10:33:19;;;;;;;14.98;8.85;;;;;;;;;;5070423;28;20033;-57
2023/02/22 10:35:45;;;;;;;15.63;9.27;;;;;;;;;;5070432;28;20024;-57
2023/02/22 10:38:17;;;;;;;18.15;8.57;;;;;;;;;;5069535;28;20032;-57
2023/02/22 10:40:48;;;;;;;17.02;8.75;;;;;;;;;;5066158;28;20485;-58
2023/02/22 10:43:14;;;;;;;15.55;8.93;;;;;;;;;;5066474;28;20418;-57
2023/02/22 10:45:39;;;;;;;15.75;9.60;;;;;;;;;;5070040;28;20020;-57
2023/02/22 10:48:17;;;;;;;16.67;9.60;;;;;;;;;;5074424;28;20099;-57
2023/02/22 10:50:44;;;;;;;22.63;9.30;;;;;;;;;;5066912;28;20047;-58
2023/02/22 10:53:10;;;;;;;23.77;11.15;;;;;;;;;;5068570;28;20035;-57
2023/02/22 10:56:11;;;;;;;24.00;9.80;;;;;;;;;;5070540;28;20056;-58
2023/02/22 10:58:46;;;;;;;18.40;8.77;;;;;;;;;;5068402;28;20441;-58
2023/02/22 11:01:18;;;;;;;16.25;8.40;;;;;;;;;;5068383;28;20035;-58
2023/02/22 11:03:44;;;;;;;15.70;8.57;;;;;;;;;;5069479;28;20037;-58
2023/02/22 11:06:20;;;;;;;15.73;8.63;;;;;;;;;;5076075;28;20025;-58
2023/02/22 11:08:50;;;;;;;15.48;8.30;;;;;;;;;;5063641;28;20052;-58
2023/02/22 11:11:23;;;;;;;;;;;;;;;;;;5069793;28;20128;-58
2023/02/22 11:13:59;;;;;;;14.95;7.88;;;;;;;;;;5069238;28;19966;-58
2023/02/22 11:16:34;;;;;;;14.20;7.25;;;;;;;;;;5068569;28;20062;-58
2023/02/22 11:19:23;;;;;;;11.82;7.20;;;;;;;;;;5068997;28;20111;-58
2023/02/22 11:21:52;;;;;;;13.00;7.60;;;;;;;;;;5068834;28;20037;-59
2023/02/22 11:24:19;;;;;;;17.02;8.18;;;;;;;;;;5070672;28;20033;-58
2023/02/22 11:26:48;;;;;;;13.70;7.53;;;;;;;;;;5068884;28;20039;-58
2023/02/22 11:29:26;;;;;;;12.98;7.20;;;;;;;;;;5069373;28;20020;-58
2023/02/22 11:31:52;;;;;;;11.85;6.90;;;;;;;;;;5068734;28;20028;-58
2023/02/22 11:34:36;;;;;;;14.20;7.07;;;;;;;;;;5069358;28;20037;-58
2023/02/22 11:37:32;;;;;;;13.88;7.15;;;;;;;;;;5066855;28;20505;-58
2023/02/22 11:40:14;;;;;;;13.13;7.03;;;;;;;;;;5066571;28;20032;-58
2023/02/22 11:42:39;;;;;;;12.75;7.03;;;;;;;;;;5069337;28;20020;-58
2023/02/22 11:45:23;;;;;;;14.57;7.63;;;;;;;;;;5069176;28;20500;-58
2023/02/22 11:47:53;;;;;;;12.20;7.18;;;;;;;;;;5067739;28;20059;-58
2023/02/22 11:51:02;;;;;;;13.55;7.85;;;;;;;;;;5068745;28;20032;-58
2023/02/22 11:53:46;;;;;;;13.93;8.38;;;;;;;;;;5007360;28;20080;-58
2023/02/22 11:56:19;;;;;;;16.73;7.75;;;;;;;;;;5061988;28;20037;-58
2023/02/22 11:59:01;;;;;;;15.65;8.95;;;;;;;;;;5068584;28;20029;-58
2023/02/22 12:01:54;;;;;;;15.07;8.90;;;;;;;;;;5068679;28;20401;-58
2023/02/22 12:04:22;;;;;;;20.05;9.23;;;;;;;;;;5074487;28;20020;-58
2023/02/22 12:07:07;;;;;;;14.10;8.63;;;;;;;;;;5068967;28;20093;-57
2023/02/22 12:10:17;;;;;;;15.15;8.27;;;;;;;;;;5067929;28;20099;-58
2023/02/22 12:13:15;;;;;;;13.93;8.13;;;;;;;;;;5053886;28;20032;-57
2023/02/22 12:15:55;;;;;;;14.52;8.05;;;;;;;;;;5073760;28;20108;-58
2023/02/22 12:18:26;;;;;;;16.63;8.20;;;;;;;;;;5069360;28;20043;-57
2023/02/22 12:21:00;;;;;;;14.82;8.65;;;;;;;;;;5072636;28;20124;-58
2023/02/22 12:23:49;;;;;;;13.05;8.05;;;;;;;;;;5072832;28;20029;-57
2023/02/22 12:26:29;;;;;;;14.88;8.85;;;;;;;;;;5070579;28;20020;-57
2023/02/22 12:29:04;;;;;;;13.90;8.65;;;;;;;;;;5071653;28;20028;-57
2023/02/22 12:31:35;;;;;;;13.40;9.27;;;;;;;;;;5074816;28;20489;-58
2023/02/22 12:34:10;;;;;;;24.35;10.80;;;;;;;;;;5070753;28;20020;-57
2023/02/22 12:36:45;;;;;;;17.40;9.30;;;;;;;;;;5075781;28;20024;-58
2023/02/22 12:39:51;;;;;;;14.13;8.70;;;;;;;;;;5076490;28;20044;-58
2023/02/22 12:42:23;;;;;;;16.95;9.23;;;;;;;;;;5069144;28;20036;-58
2023/02/22 12:45:05;;;;;;;18.23;9.45;;;;;;;;;;5071748;28;20389;-58
2023/02/22 12:47:41;;;;;;;14.63;8.43;;;;;;;;;;5072218;28;20028;-58
2023/02/22 12:50:18;;;;;;;16.15;8.88;;;;;;;;;;5071981;28;20024;-58
2023/02/22 12:52:52;;;;;;;12.82;8.95;;;;;;;;;;5070313;28;20028;-58
2023/02/22 12:55:27;;;;;;;16.30;9.40;;;;;;;;;;5072335;28;20028;-58
2023/02/22 12:57:59;;;;;;;17.10;9.45;;;;;;;;;;5071354;28;20028;-58
2023/02/22 13:00:36;;;;;;;17.77;9.30;;;;;;;;;;5069108;28;20042;-58
2023/02/22 13:03:26;;;;;;;15.30;8.75;;;;;;;;;;5072130;28;20021;-58
2023/02/22 13:06:06;;;;;;;15.52;9.18;;;;;;;;;;5072542;28;20033;-57
2023/02/22 13:09:00;;;;;;;15.95;9.35;;;;;;;;;;5070200;28;20487;-58
2023/02/22 13:11:47;;;;;;;15.63;8.73;;;;;;;;;;5067399;28;20444;-58
2023/02/22 13:14:50;;;;;;;15.80;9.40;;;;;;;;;;5071425;28;20028;-58
2023/02/22 13:17:19;;;;;;;15.98;9.32;;;;;;;;;;5068378;28;20082;-58
2023/02/22 13:19:58;;;;;;;17.52;8.88;;;;;;;;;;5071612;28;20020;-59
2023/02/22 13:22:51;;;;;;;16.53;9.73;;;;;;;;;;5071138;28;20059;-58
2023/02/22 13:25:16;;;;;;;17.52;10.25;;;;;;;;;;5067337;28;20056;-57
2023/02/22 13:27:46;;;;;;;15.52;9.23;;;;;;;;;;5070846;28;20500;-58
2023/02/22 13:30:20;;;;;;;16.60;9.20;;;;;;;;;;5070589;28;20203;-57
2023/02/22 13:33:14;;;;;;;17.50;9.30;;;;;;;;;;5071701;28;20081;-57
2023/02/22 13:35:48;;;;;;;15.75;8.57;;;;;;;;;;5054579;28;20036;-58
2023/02/22 13:38:32;;;;;;;13.57;9.13;;;;;;;;;;5070389;28;20032;-58
2023/02/22 13:41:19;;;;;;;16.50;8.80;;;;;;;;;;5070245;28;20021;-58
2023/02/22 13:44:19;;;;;;;15.02;8.80;;;;;;;;;;5070464;28;20013;-57
2023/02/22 13:46:53;;;;;;;18.10;8.63;;;;;;;;;;5062583;28;20187;-57
2023/02/22 13:49:47;;;;;;;16.02;8.85;;;;;;;;;;5070883;28;20028;-57
2023/02/22 13:52:16;;;;;;;16.73;8.95;;;;;;;;;;5067645;28;20524;-58
2023/02/22 13:54:53;;;;;;;20.48;11.40;;;;;;;;;;5062957;28;20055;-58
2023/02/22 13:57:47;;;;;;;20.40;9.20;;;;;;;;;;5070340;28;20102;-58
2023/02/22 14:00:15;;;;;;;16.70;9.02;;;;;;;;;;5068061;28;20498;-58
2023/02/22 14:02:57;;;;;;;13.38;8.05;;;;;;;;;;5071489;28;20500;-58
2023/02/22 14:05:50;;;;;;;20.13;8.50;;;;;;;;;;5076256;28;20020;-58
2023/02/22 14:08:20;;;;;;;19.33;9.57;;;;;;;;;;5061048;28;20047;-57
2023/02/22 14:10:50;;;;;;;16.98;8.65;;;;;;;;;;5063895;28;20032;-56
2023/02/22 14:13:21;;;;;;;16.80;8.90;;;;;;;;;;5069929;28;20032;-57
2023/02/22 14:15:58;;;;;;;16.90;8.77;;;;;;;;;;5067150;28;20112;-57
2023/02/22 14:18:35;;;;;;;18.45;9.68;;;;;;;;;;5067172;28;20029;-57
2023/02/22 14:21:19;;;;;;;19.63;9.98;;;;;;;;;;5069709;28;20021;-57
2023/02/22 14:23:52;;;;;;;17.60;9.40;;;;;;;;;;5067518;28;20063;-57
2023/02/22 14:26:22;;;;;;;18.98;9.05;;;;;;;;;;5070569;28;20028;-57
2023/02/22 14:29:02;;;;;;;17.45;9.32;;;;;;;;;;5069609;28;20200;-58
2023/02/22 14:31:33;;;;;;;18.98;8.93;;;;;;;;;;5067890;28;20433;-58
2023/02/22 14:34:06;;;;;;;15.18;9.15;;;;;;;;;;5063023;28;20025;-58
2023/02/22 14:36:53;;;;;;;15.98;9.48;;;;;;;;;;5069491;28;20455;-57
2023/02/22 14:39:32;;;;;;;18.20;11.80;;;;;;;;;;5067155;28;20450;-57
2023/02/22 14:42:12;;;;;;;16.52;10.38;;;;;;;;;;5063863;28;20039;-58
2023/02/22 14:44:43;;;;;;;17.92;9.05;;;;;;;;;;5068843;28;20511;-57
2023/02/22 14:47:18;;;;;;;18.42;9.90;;;;;;;;;;5069377;28;20086;-58
2023/02/22 14:49:47;;;;;;;19.27;10.07;;;;;;;;;;5064171;28;20082;-58
2023/02/22 14:52:35;;;;;;;19.53;9.57;;;;;;;;;;5069928;28;20024;-57
2023/02/22 14:55:21;;;;;;;16.02;9.65;;;;;;;;;;5064836;28;20799;-58
2023/02/22 14:58:10;;;;;;;19.80;11.90;;;;;;;;;;5063572;28;20036;-58
2023/02/22 15:00:46;;;;;;;24.60;11.57;;;;;;;;;;5038571;28;20039;-59
2023/02/22 15:03:21;;;;;;;15.05;10.15;;;;;;;;;;5070283;28;20267;-58